Saturday, January 20, 2018, 9:57 AM EST
Back to Local

KEEN, Keene, Dillant-hopkins Airport

Location: Keene, NH, United States Lat: 42.9
Local Time: 9:57 AM EST (14:57 GMT) Lon: -72.267
Time Zone: US/Eastern Elev: 488 ft

Show me the last for .
Show Decoded

2018-01-20 08:56 METAR KEEN 201356Z AUTO 04004KT 10SM CLR M02/M04 A2971 RMK AO2 SLP081 T10221044
                 FZRANO =
2018-01-20 07:56 METAR KEEN 201256Z AUTO 00000KT 10SM CLR M03/M05 A2969 RMK AO2 SLP076 T10281050
                 FZRANO =
2018-01-20 06:56 METAR KEEN 201156Z AUTO 00000KT 10SM CLR M03/M06 A2968 RMK AO2 SLP071 70001
                 T10331056 11033 21072 56027 FZRANO =
2018-01-20 05:56 METAR KEEN 201056Z AUTO 17003KT 9SM CLR M06/M07 A2969 RMK AO2 SLP073 T10561067
                 FZRANO =
2018-01-20 04:56 METAR KEEN 200956Z AUTO 00000KT 8SM CLR M07/M07 A2972 RMK AO2 SLP084 T10671072
                 FZRANO =
2018-01-20 03:56 METAR KEEN 200856Z AUTO 00000KT 8SM CLR M07/M08 A2976 RMK AO2 SLP097 T10721083
                 58010 FZRANO =
2018-01-20 01:56 METAR KEEN 200656Z AUTO 00000KT 7SM CLR M07/M08 A2979 RMK AO2 SLP106 T10671078
                 FZRANO =
2018-01-20 00:56 METAR KEEN 200556Z AUTO 18004KT 8SM CLR M06/M07 A2979 RMK AO2 SLP109 T10611072
                 11017 21067 58033 FZRANO =
2018-01-19 23:56 METAR KEEN 200456Z AUTO 21004KT 7SM CLR M07/M08 A2984 RMK AO2 SLP127 T10671078
                 400331083 FZRANO =
2018-01-19 21:56 METAR KEEN 200256Z AUTO 19004KT 6SM BR CLR M06/M08 A2989 RMK AO2 SLP142
                 T10561078 58008 FZRANO =
2018-01-19 20:56 METAR KEEN 200156Z AUTO 00000KT 7SM CLR M04/M06 A2990 RMK AO2 SLP145 T10391061
                 FZRANO =
2018-01-19 19:56 METAR KEEN 200056Z AUTO 21004KT 10SM SCT035 M02/M06 A2992 RMK AO2 SLP152
                 T10221061 FZRANO =
2018-01-19 18:56 METAR KEEN 192356Z AUTO 22006KT 10SM OVC035 M02/M06 A2991 RMK AO2 SLP150 60000
                 T10171056 10017 21022 55001 FZRANO =
2018-01-19 17:56 METAR KEEN 192256Z AUTO 20006KT 10SM OVC037 M02/M06 A2990 RMK AO2 SLP147
                 T10171061 FZRANO =
2018-01-19 16:56 METAR KEEN 192156Z AUTO 22005KT 10SM OVC037 M02/M06 A2990 RMK AO2 UPB08E18
                 SLP147 P0000 T10171056 FZRANO =
2018-01-19 15:56 METAR KEEN 192056Z AUTO 00000KT 10SM OVC037 M01/M05 A2992 RMK AO2 UPE33 SLP151
                 P0000 60000 T10061050 53003 FZRANO =
2018-01-19 14:56 METAR KEEN 191956Z AUTO 00000KT 10SM UP OVC035 00/M05 A2990 RMK AO2 UPB55 SLP146
                 P0000 T00001050 FZRANO =
2018-01-19 13:56 METAR KEEN 191856Z AUTO 00000KT 10SM OVC033 00/M06 A2990 RMK AO2 SLP148
                 T00001061 FZRANO =
2018-01-19 12:52 METAR KEEN 191752Z AUTO 02004KT 10SM OVC031 02/M06 A2991 RMK AO2 P0001 FZRANO =
2018-01-19 12:38 METAR KEEN 191738Z AUTO 36004KT 9SM BKN029 03/M06 A2991 RMK AO2 P0001 =
2018-01-19 11:56 METAR KEEN 191656Z AUTO 00000KT 9SM SCT029 02/M06 A2993 RMK AO2 UPB12E37 SLP157
                 P0000 T00221056 FZRANO =
2018-01-19 11:37 METAR KEEN 191637Z AUTO 00000KT 10SM FEW023 BKN031 00/M06 A2994 RMK AO2 UPB12E37
                 P0000 FZRANO =
2018-01-19 10:56 METAR KEEN 191556Z AUTO 00000KT 10SM OVC029 M02/M06 A2996 RMK AO2
                 UPB46E56SNB21E37 SLP168 P0000 T10221056 FZRANO =

Support USWX by starting your Amazon purchase here.